Time;durP1;ratioP1;P1;durP2;ratioP2;P2;SDS_P1;SDS_P2;PMS_P1;PMS_P2;Temp;Humidity;BMP_temperature;BMP_pressure;BME280_temperature;BME280_humidity;BME280_pressure;Samples;Min_cycle;Max_cycle;Signal;HPM_P1;HPM_P2
2023/12/17 00:01:29;;;;;;;;;;;;;;;;;;2206077;59;2481;-21
2023/12/17 00:04:00;;;;;;;;;;;;;;;;;;2206138;59;1861;-21
2023/12/17 00:06:30;;;;;;;;;;;;;;;;;;2209041;59;2338;-21
2023/12/17 00:09:00;;;;;;;;;;;;;;;;;;2205749;59;2461;-21
2023/12/17 00:11:30;;;;;;;;;;;;;;;;;;2206382;59;1881;-21
2023/12/17 00:14:01;;;;;;;;;;;;;;;;;;2209678;59;2109;-22
2023/12/17 00:16:31;;;;;;;;;;;;;;;;;;2209047;59;2086;-21
2023/12/17 00:19:01;;;;;;;;;;;;;;;;;;2209428;59;1923;-21
2023/12/17 00:21:32;;;;;;;;;;;;;;;;;;2210108;58;2446;-21
2023/12/17 00:24:02;;;;;;;;;;;;;;;;;;2211211;59;1873;-21
2023/12/17 00:26:32;;;;;;;;;;;;;;;;;;2211072;59;2200;-21
2023/12/17 00:29:03;;;;;;;;;;;;;;;;;;2212659;59;2607;-21
2023/12/17 00:31:33;;;;;;;;;;;;;;;;;;2211538;59;3812;-22
2023/12/17 00:34:04;;;;;;;;;;;;;;;;;;2208356;59;2489;-22
2023/12/17 00:36:34;;;;;;;;;;;;;;;;;;2210857;59;2269;-22
2023/12/17 00:39:04;;;;;;;;;;;;;;;;;;2210920;59;2703;-21
2023/12/17 00:41:35;;;;;;;;;;;;;;;;;;2207822;59;2313;-21
2023/12/17 00:44:05;;;;;;;;;;;;;;;;;;2207060;59;2493;-21
2023/12/17 00:46:35;;;;;;;;;;;;;;;;;;2208034;59;2390;-21
2023/12/17 00:49:05;;;;;;;;;;;;;;;;;;2211157;58;2590;-21
2023/12/17 00:51:36;;;;;;;;;;;;;;;;;;2211929;59;2664;-21
2023/12/17 00:54:06;;;;;;;;;;;;;;;;;;2213716;59;2798;-21
2023/12/17 00:56:36;;;;;;;;;;;;;;;;;;2210604;59;2291;-22
2023/12/17 00:59:07;;;;;;;;;;;;;;;;;;2209513;66;2408;-21
2023/12/17 01:01:38;;;;;;;;;;;;;;;;;;2208216;59;1913;-21
2023/12/17 01:04:08;;;;;;;;;;;;;;;;;;2205490;59;2261;-22
2023/12/17 01:06:38;;;;;;;;;;;;;;;;;;2213146;59;3157;-21
2023/12/17 01:09:10;;;;;;;;;;;;;;;;;;2212339;59;2259;-22
2023/12/17 01:11:42;;;;;;;;;;;;;;;;;;2208533;59;2039;-21
2023/12/17 01:14:12;;;;;;;;;;;;;;;;;;2206052;59;2359;-21
2023/12/17 01:16:42;;;;;;;;;;;;;;;;;;2207977;59;1830;-21
2023/12/17 01:19:12;;;;;;;;;;;;;;;;;;2210071;59;2401;-21
2023/12/17 01:21:43;;;;;;;;;;;;;;;;;;2209131;59;2479;-21
2023/12/17 01:24:13;;;;;;;;;;;;;;;;;;2209075;59;1986;-21
2023/12/17 01:26:43;;;;;;;;;;;;;;;;;;2205779;59;2268;-21
2023/12/17 01:29:13;;;;;;;;;;;;;;;;;;2206448;59;2037;-21
2023/12/17 01:31:44;;;;;;;;;;;;;;;;;;2206624;59;2361;-21
2023/12/17 01:34:14;;;;;;;;;;;;;;;;;;2203033;59;2413;-21
2023/12/17 01:36:44;;;;;;;;;;;;;;;;;;2208776;59;3371;-21
2023/12/17 01:39:15;;;;;;;;;;;;;;;;;;2208786;66;1937;-21
2023/12/17 01:41:45;;;;;;;;;;;;;;;;;;2208760;66;1368;-21
2023/12/17 01:44:15;;;;;;;;;;;;;;;;;;2210087;59;1296;-21
2023/12/17 01:46:46;;;;;;;;;;;;;;;;;;2208553;59;2217;-21
2023/12/17 01:49:16;;;;;;;;;;;;;;;;;;2210117;66;1618;-21
2023/12/17 01:51:46;;;;;;;;;;;;;;;;;;2208948;66;1485;-21
2023/12/17 01:54:17;;;;;;;;;;;;;;;;;;2209624;59;1582;-21
2023/12/17 01:56:48;;;;;;;;;;;;;;;;;;2204977;66;1314;-21
2023/12/17 01:59:19;;;;;;;;;;;;;;;;;;2208490;66;1927;-21
2023/12/17 02:01:52;;;;;;;;;;;;;;;;;;2207487;66;1430;-21
2023/12/17 02:04:22;;;;;;;;;;;;;;;;;;2204660;66;1825;-21
2023/12/17 02:06:52;;;;;;;;;;;;;;;;;;2209273;59;2165;-21
2023/12/17 02:09:22;;;;;;;;;;;;;;;;;;2205299;59;2118;-21
2023/12/17 02:11:53;;;;;;;;;;;;;;;;;;2208681;59;1270;-21
2023/12/17 02:14:23;;;;;;;;;;;;;;;;;;2206087;59;1424;-21
2023/12/17 02:16:53;;;;;;;;;;;;;;;;;;2209235;66;1533;-21
2023/12/17 02:19:23;;;;;;;;;;;;;;;;;;2205182;59;1939;-21
2023/12/17 02:21:54;;;;;;;;;;;;;;;;;;2209432;66;1331;-21
2023/12/17 02:24:24;;;;;;;;;;;;;;;;;;2209451;66;1454;-21
2023/12/17 02:26:54;;;;;;;;;;;;;;;;;;2207058;66;1922;-21
2023/12/17 02:29:24;;;;;;;;;;;;;;;;;;2208692;66;1404;-21
2023/12/17 02:31:55;;;;;;;;;;;;;;;;;;2207058;59;2122;-21
2023/12/17 02:34:25;;;;;;;;;;;;;;;;;;2209390;59;2159;-21
2023/12/17 02:36:56;;;;;;;;;;;;;;;;;;2209121;66;1573;-21
2023/12/17 02:39:26;;;;;;;;;;;;;;;;;;2208741;66;1933;-21
2023/12/17 02:41:57;;;;;;;;;;;;;;;;;;2208971;66;1345;-21
2023/12/17 02:44:28;;;;;;;;;;;;;;;;;;2206100;66;1436;-21
2023/12/17 02:46:58;;;;;;;;;;;;;;;;;;2208760;59;1477;-21
2023/12/17 02:49:28;;;;;;;;;;;;;;;;;;2205972;66;1724;-21
2023/12/17 02:51:59;;;;;;;;;;;;;;;;;;2209963;66;1264;-21
2023/12/17 02:54:29;;;;;;;;;;;;;;;;;;2208606;59;1307;-21
2023/12/17 02:57:00;;;;;;;;;;;;;;;;;;2209546;66;1528;-21
2023/12/17 02:59:30;;;;;;;;;;;;;;;;;;2208499;66;1990;-21
2023/12/17 03:02:00;;;;;;;;;;;;;;;;;;2208795;59;2324;-21
2023/12/17 03:04:31;;;;;;;;;;;;;;;;;;2208626;59;1552;-21
2023/12/17 03:07:01;;;;;;;;;;;;;;;;;;2206740;59;2063;-21
2023/12/17 03:09:31;;;;;;;;;;;;;;;;;;2208011;59;2144;-21
2023/12/17 03:12:02;;;;;;;;;;;;;;;;;;2208584;59;1519;-22
2023/12/17 03:14:32;;;;;;;;;;;;;;;;;;2208660;59;1574;-21
2023/12/17 03:17:03;;;;;;;;;;;;;;;;;;2209401;66;1892;-21
2023/12/17 03:19:33;;;;;;;;;;;;;;;;;;2208439;59;1975;-21
2023/12/17 03:22:03;;;;;;;;;;;;;;;;;;2209493;66;1310;-21
2023/12/17 03:24:34;;;;;;;;;;;;;;;;;;2208556;66;1374;-21
2023/12/17 03:27:04;;;;;;;;;;;;;;;;;;2209383;59;2216;-21
2023/12/17 03:29:35;;;;;;;;;;;;;;;;;;2204838;59;1374;-21
2023/12/17 03:32:05;;;;;;;;;;;;;;;;;;2209459;59;2680;-21
2023/12/17 03:34:35;;;;;;;;;;;;;;;;;;2205375;67;1321;-21
2023/12/17 03:37:06;;;;;;;;;;;;;;;;;;2208595;59;1231;-21
2023/12/17 03:39:36;;;;;;;;;;;;;;;;;;2208793;66;1940;-21
2023/12/17 03:42:06;;;;;;;;;;;;;;;;;;2207908;59;1549;-21
2023/12/17 03:44:37;;;;;;;;;;;;;;;;;;2205831;59;1783;-21
2023/12/17 03:47:07;;;;;;;;;;;;;;;;;;2208620;66;1398;-21
2023/12/17 03:49:37;;;;;;;;;;;;;;;;;;2207725;66;1463;-21
2023/12/17 03:52:07;;;;;;;;;;;;;;;;;;2205148;66;1807;-21
2023/12/17 03:54:38;;;;;;;;;;;;;;;;;;2205751;66;2146;-21
2023/12/17 03:57:08;;;;;;;;;;;;;;;;;;2205695;59;2346;-21
2023/12/17 03:59:38;;;;;;;;;;;;;;;;;;2208072;59;1952;-21
2023/12/17 04:02:08;;;;;;;;;;;;;;;;;;2205534;66;1677;-21
2023/12/17 04:04:39;;;;;;;;;;;;;;;;;;2209285;59;1795;-21
2023/12/17 04:07:09;;;;;;;;;;;;;;;;;;2208886;59;2363;-21
2023/12/17 04:09:39;;;;;;;;;;;;;;;;;;2208810;59;1637;-21
2023/12/17 04:12:09;;;;;;;;;;;;;;;;;;2209206;59;1434;-21
2023/12/17 04:14:40;;;;;;;;;;;;;;;;;;2206022;59;1415;-21
2023/12/17 04:17:10;;;;;;;;;;;;;;;;;;2209459;59;1667;-21
2023/12/17 04:19:41;;;;;;;;;;;;;;;;;;2207923;66;1999;-21
2023/12/17 04:22:11;;;;;;;;;;;;;;;;;;2209131;66;1189;-21
2023/12/17 04:24:41;;;;;;;;;;;;;;;;;;2208295;59;2177;-21
2023/12/17 04:27:11;;;;;;;;;;;;;;;;;;2210099;59;1247;-21
2023/12/17 04:29:42;;;;;;;;;;;;;;;;;;2208658;66;1352;-21
2023/12/17 04:32:12;;;;;;;;;;;;;;;;;;2208807;59;2072;-21
2023/12/17 04:34:42;;;;;;;;;;;;;;;;;;2206001;66;1434;-21
2023/12/17 04:37:13;;;;;;;;;;;;;;;;;;2210307;66;1296;-21
2023/12/17 04:39:43;;;;;;;;;;;;;;;;;;2209404;66;1948;-21
2023/12/17 04:42:13;;;;;;;;;;;;;;;;;;2209438;59;2191;-21
2023/12/17 04:44:43;;;;;;;;;;;;;;;;;;2205814;59;1686;-21
2023/12/17 04:47:14;;;;;;;;;;;;;;;;;;2209752;66;1575;-21
2023/12/17 04:49:44;;;;;;;;;;;;;;;;;;2208728;66;2067;-21
2023/12/17 04:52:14;;;;;;;;;;;;;;;;;;2208464;66;1262;-21
2023/12/17 04:54:44;;;;;;;;;;;;;;;;;;2209425;59;2336;-21
2023/12/17 04:57:14;;;;;;;;;;;;;;;;;;2208801;59;2331;-21
2023/12/17 04:59:45;;;;;;;;;;;;;;;;;;2208655;66;1935;-22
2023/12/17 05:02:15;;;;;;;;;;;;;;;;;;2209994;59;1595;-21
2023/12/17 05:04:45;;;;;;;;;;;;;;;;;;2209513;59;1583;-21
2023/12/17 05:07:16;;;;;;;;;;;;;;;;;;2209448;59;2292;-21
2023/12/17 05:09:47;;;;;;;;;;;;;;;;;;2208279;59;1351;-21
2023/12/17 05:12:17;;;;;;;;;;;;;;;;;;2210019;59;1250;-21
2023/12/17 05:14:47;;;;;;;;;;;;;;;;;;2209368;59;1223;-21
2023/12/17 05:17:17;;;;;;;;;;;;;;;;;;2209849;66;1999;-21
2023/12/17 05:19:47;;;;;;;;;;;;;;;;;;2208341;66;1600;-21
2023/12/17 05:22:18;;;;;;;;;;;;;;;;;;2209155;59;1290;-21
2023/12/17 05:24:48;;;;;;;;;;;;;;;;;;2208975;66;1504;-21
2023/12/17 05:27:18;;;;;;;;;;;;;;;;;;2209447;59;2191;-21
2023/12/17 05:29:49;;;;;;;;;;;;;;;;;;2205085;59;1489;-21
2023/12/17 05:32:19;;;;;;;;;;;;;;;;;;2208805;59;2724;-21
2023/12/17 05:34:49;;;;;;;;;;;;;;;;;;2209233;66;1443;-21
2023/12/17 05:37:20;;;;;;;;;;;;;;;;;;2209827;66;1925;-21
2023/12/17 05:39:50;;;;;;;;;;;;;;;;;;2209235;66;1420;-21
2023/12/17 05:42:20;;;;;;;;;;;;;;;;;;2208687;66;1938;-21
2023/12/17 05:44:51;;;;;;;;;;;;;;;;;;2208879;66;1416;-21
2023/12/17 05:47:21;;;;;;;;;;;;;;;;;;2205198;66;1453;-21
2023/12/17 05:49:51;;;;;;;;;;;;;;;;;;2203605;66;1372;-21
2023/12/17 05:52:21;;;;;;;;;;;;;;;;;;2210542;66;1510;-21
2023/12/17 05:54:51;;;;;;;;;;;;;;;;;;2209430;66;1345;-21
2023/12/17 05:57:22;;;;;;;;;;;;;;;;;;2209786;66;1996;-21
2023/12/17 05:59:52;;;;;;;;;;;;;;;;;;2208978;66;2177;-21
2023/12/17 06:02:22;;;;;;;;;;;;;;;;;;2202298;59;1579;-21
2023/12/17 06:04:52;;;;;;;;;;;;;;;;;;2208843;59;2095;-21
2023/12/17 06:07:22;;;;;;;;;;;;;;;;;;2207991;59;2361;-21
2023/12/17 06:09:53;;;;;;;;;;;;;;;;;;2204972;59;3010;-21
2023/12/17 06:12:23;;;;;;;;;;;;;;;;;;2209842;59;1302;-21
2023/12/17 06:14:53;;;;;;;;;;;;;;;;;;2208919;59;1352;-21
2023/12/17 06:17:23;;;;;;;;;;;;;;;;;;2209390;59;2800;-22
2023/12/17 06:19:53;;;;;;;;;;;;;;;;;;2205811;59;1441;-22
2023/12/17 06:22:28;;;;;;;;;;;;;;;;;;2209554;59;1325;-22
2023/12/17 06:24:58;;;;;;;;;;;;;;;;;;2208830;59;1422;-21
2023/12/17 06:27:30;;;;;;;;;;;;;;;;;;2206882;66;1909;-22
2023/12/17 06:30:00;;;;;;;;;;;;;;;;;;2208610;59;1312;-22
2023/12/17 06:32:30;;;;;;;;;;;;;;;;;;2206726;59;2166;-22
2023/12/17 06:35:00;;;;;;;;;;;;;;;;;;2209256;59;1888;-22
2023/12/17 06:37:31;;;;;;;;;;;;;;;;;;2206002;66;1946;-21
2023/12/17 06:40:01;;;;;;;;;;;;;;;;;;2209028;66;1608;-22
2023/12/17 06:42:31;;;;;;;;;;;;;;;;;;2205306;66;1504;-22
2023/12/17 06:45:02;;;;;;;;;;;;;;;;;;2209019;66;1222;-22
2023/12/17 06:47:32;;;;;;;;;;;;;;;;;;2205932;66;1469;-22
2023/12/17 06:50:02;;;;;;;;;;;;;;;;;;2208122;59;1754;-22
2023/12/17 06:52:32;;;;;;;;;;;;;;;;;;2206007;59;1960;-22
2023/12/17 06:55:03;;;;;;;;;;;;;;;;;;2205940;59;2261;-22
2023/12/17 06:57:34;;;;;;;;;;;;;;;;;;2205715;59;1936;-22
2023/12/17 07:00:04;;;;;;;;;;;;;;;;;;2205261;66;2829;-22
2023/12/17 07:02:34;;;;;;;;;;;;;;;;;;2206175;59;1325;-22
2023/12/17 07:05:05;;;;;;;;;;;;;;;;;;2208725;66;1421;-22
2023/12/17 07:07:35;;;;;;;;;;;;;;;;;;2206244;59;2186;-22
2023/12/17 07:10:06;;;;;;;;;;;;;;;;;;2208409;59;1247;-22
2023/12/17 07:12:36;;;;;;;;;;;;;;;;;;2209175;59;1426;-22
2023/12/17 07:15:07;;;;;;;;;;;;;;;;;;2208461;59;1467;-22
2023/12/17 07:17:37;;;;;;;;;;;;;;;;;;2208959;59;1952;-22
2023/12/17 07:20:08;;;;;;;;;;;;;;;;;;2205688;59;2259;-23
2023/12/17 07:22:39;;;;;;;;;;;;;;;;;;2209320;59;1364;-22
2023/12/17 07:25:10;;;;;;;;;;;;;;;;;;2210365;66;1488;-22
2023/12/17 07:27:40;;;;;;;;;;;;;;;;;;2210400;59;1642;-22
2023/12/17 07:30:10;;;;;;;;;;;;;;;;;;2209518;67;1295;-22
2023/12/17 07:32:41;;;;;;;;;;;;;;;;;;2209471;59;2088;-22
2023/12/17 07:35:11;;;;;;;;;;;;;;;;;;2209062;66;1448;-22
2023/12/17 07:37:41;;;;;;;;;;;;;;;;;;2214789;53;4738;-20
2023/12/17 07:40:12;;;;;;;;;;;;;;;;;;2217599;58;2139;-20
2023/12/17 07:42:42;;;;;;;;;;;;;;;;;;2215804;58;1796;-20
2023/12/17 07:45:12;;;;;;;;;;;;;;;;;;2217152;66;2427;-20
2023/12/17 07:47:44;;;;;;;;;;;;;;;;;;2217531;58;2308;-20
2023/12/17 07:50:15;;;;;;;;;;;;;;;;;;2217258;66;2633;-20
2023/12/17 07:52:46;;;;;;;;;;;;;;;;;;2219047;58;2698;-20
2023/12/17 07:55:16;;;;;;;;;;;;;;;;;;2217038;58;1782;-20
2023/12/17 07:57:46;;;;;;;;;;;;;;;;;;2216084;58;3138;-20
2023/12/17 08:00:17;;;;;;;;;;;;;;;;;;2216830;66;1890;-20
2023/12/17 08:02:47;;;;;;;;;;;;;;;;;;2216952;58;1818;-20
2023/12/17 08:05:18;;;;;;;;;;;;;;;;;;2217637;59;2684;-20
2023/12/17 08:07:48;;;;;;;;;;;;;;;;;;2216620;58;2569;-20
2023/12/17 08:10:18;;;;;;;;;;;;;;;;;;2216840;58;2200;-20
2023/12/17 08:12:49;;;;;;;;;;;;;;;;;;2216844;58;2272;-20
2023/12/17 08:15:19;;;;;;;;;;;;;;;;;;2217572;58;1975;-20
2023/12/17 08:17:49;;;;;;;;;;;;;;;;;;2217159;58;2101;-20
2023/12/17 08:20:19;;;;;;;;;;;;;;;;;;2214089;63;2464;-20
2023/12/17 08:22:49;;;;;;;;;;;;;;;;;;2213351;59;1965;-21
2023/12/17 08:25:20;;;;;;;;;;;;;;;;;;2221658;58;2006;-20
2023/12/17 08:27:51;;;;;;;;;;;;;;;;;;2219737;66;2385;-21
2023/12/17 08:30:22;;;;;;;;;;;;;;;;;;2217089;58;2406;-21
2023/12/17 08:32:52;;;;;;;;;;;;;;;;;;2217425;58;2314;-20
2023/12/17 08:35:22;;;;;;;;;;;;;;;;;;2217495;66;1816;-20
2023/12/17 08:37:59;;;;;;;;;;;;;;;;;;2217062;58;2775;-20
2023/12/17 08:40:31;;;;;;;;;;;;;;;;;;2214580;58;1815;-20
2023/12/17 08:43:02;;;;;;;;;;;;;;;;;;2216690;66;1933;-20
2023/12/17 08:45:33;;;;;;;;;;;;;;;;;;2216788;66;2259;-20
2023/12/17 08:48:03;;;;;;;;;;;;;;;;;;2216601;66;1799;-20
2023/12/17 08:50:33;;;;;;;;;;;;;;;;;;2216507;66;1811;-20
2023/12/17 08:53:04;;;;;;;;;;;;;;;;;;2216323;66;2354;-20
2023/12/17 08:55:34;;;;;;;;;;;;;;;;;;2216634;59;2112;-20
2023/12/17 08:58:04;;;;;;;;;;;;;;;;;;2216385;66;1937;-20
2023/12/17 09:00:35;;;;;;;;;;;;;;;;;;2216508;66;2052;-20
2023/12/17 09:03:05;;;;;;;;;;;;;;;;;;2216931;66;1889;-21
2023/12/17 09:05:35;;;;;;;;;;;;;;;;;;2217036;58;2280;-21
2023/12/17 09:08:05;;;;;;;;;;;;;;;;;;2217179;58;2128;-21
2023/12/17 09:10:36;;;;;;;;;;;;;;;;;;2216750;58;2004;-21
2023/12/17 09:13:09;;;;;;;;;;;;;;;;;;2216551;58;2782;-21
2023/12/17 09:15:40;;;;;;;;;;;;;;;;;;2217003;58;1749;-21
2023/12/17 09:18:10;;;;;;;;;;;;;;;;;;2216471;66;2244;-28
2023/12/17 09:20:40;;;;;;;;;;;;;;;;;;2217650;58;2306;-21
2023/12/17 09:23:11;;;;;;;;;;;;;;;;;;2216788;58;2510;-21
2023/12/17 09:25:41;;;;;;;;;;;;;;;;;;2217283;58;2260;-21
2023/12/17 09:28:11;;;;;;;;;;;;;;;;;;2215950;58;2878;-21
2023/12/17 09:30:42;;;;;;;;;;;;;;;;;;2216750;66;1760;-21
2023/12/17 09:33:12;;;;;;;;;;;;;;;;;;2215526;58;2275;-21
2023/12/17 09:35:42;;;;;;;;;;;;;;;;;;2217457;66;1399;-21
2023/12/17 09:38:14;;;;;;;;;;;;;;;;;;2215799;58;1988;-21
2023/12/17 09:40:47;;;;;;;;;;;;;;;;;;2217210;58;2391;-21
2023/12/17 09:43:20;;;;;;;;;;;;;;;;;;2216467;66;2098;-21
2023/12/17 09:45:51;;;;;;;;;;;;;;;;;;2216566;66;1786;-21
2023/12/17 09:48:23;;;;;;;;;;;;;;;;;;2216826;66;2232;-22
2023/12/17 09:50:53;;;;;;;;;;;;;;;;;;2215922;66;2318;-21
2023/12/17 09:53:23;;;;;;;;;;;;;;;;;;2214983;58;2555;-21
2023/12/17 09:55:54;;;;;;;;;;;;;;;;;;2216371;58;2452;-21
2023/12/17 09:58:25;;;;;;;;;;;;;;;;;;2215925;58;2264;-21
2023/12/17 10:00:55;;;;;;;;;;;;;;;;;;2216197;58;2439;-21
2023/12/17 10:03:25;;;;;;;;;;;;;;;;;;2217223;58;2139;-21
2023/12/17 10:05:56;;;;;;;;;;;;;;;;;;2217539;58;2363;-21
2023/12/17 10:08:26;;;;;;;;;;;;;;;;;;2217457;58;2233;-21
2023/12/17 10:10:56;;;;;;;;;;;;;;;;;;2217061;58;2680;-21
2023/12/17 10:13:26;;;;;;;;;;;;;;;;;;2215952;58;1880;-21
2023/12/17 10:15:57;;;;;;;;;;;;;;;;;;2216682;58;2002;-21
2023/12/17 10:18:27;;;;;;;;;;;;;;;;;;2219001;58;2034;-21
2023/12/17 10:20:57;;;;;;;;;;;;;;;;;;2216669;59;1744;-21
2023/12/17 10:23:27;;;;;;;;;;;;;;;;;;2215378;58;2596;-21
2023/12/17 10:26:00;;;;;;;;;;;;;;;;;;2215497;58;2216;-21
2023/12/17 10:28:30;;;;;;;;;;;;;;;;;;2216709;58;1954;-21
2023/12/17 10:31:01;;;;;;;;;;;;;;;;;;2219058;58;2332;-21
2023/12/17 10:33:36;;;;;;;;;;;;;;;;;;2216660;58;2372;-21
2023/12/17 10:36:06;;;;;;;;;;;;;;;;;;2216163;58;2046;-21
2023/12/17 10:38:37;;;;;;;;;;;;;;;;;;2216898;58;2028;-21
2023/12/17 10:41:09;;;;;;;;;;;;;;;;;;2217103;58;2249;-21
2023/12/17 10:43:39;;;;;;;;;;;;;;;;;;2216396;59;2281;-21
2023/12/17 10:46:10;;;;;;;;;;;;;;;;;;2216857;59;1832;-21
2023/12/17 10:48:41;;;;;;;;;;;;;;;;;;2218643;58;1933;-21
2023/12/17 10:51:12;;;;;;;;;;;;;;;;;;2215559;58;2284;-21
2023/12/17 10:53:42;;;;;;;;;;;;;;;;;;2216696;58;2226;-21
2023/12/17 10:56:14;;;;;;;;;;;;;;;;;;2216744;58;1983;-21
2023/12/17 10:58:45;;;;;;;;;;;;;;;;;;2215911;58;1919;-21
2023/12/17 11:01:15;;;;;;;;;;;;;;;;;;2213029;66;2597;-21
2023/12/17 11:03:46;;;;;;;;;;;;;;;;;;2216983;66;1801;-21
2023/12/17 11:06:16;;;;;;;;;;;;;;;;;;2216080;58;2521;-21
2023/12/17 11:08:46;;;;;;;;;;;;;;;;;;2215671;58;3196;-21
2023/12/17 11:11:18;;;;;;;;;;;;;;;;;;2215812;58;1901;-21
2023/12/17 11:13:48;;;;;;;;;;;;;;;;;;2216680;66;2418;-21
2023/12/17 11:16:19;;;;;;;;;;;;;;;;;;2216305;58;1881;-21
2023/12/17 11:18:49;;;;;;;;;;;;;;;;;;2216918;66;2304;-21
2023/12/17 11:21:20;;;;;;;;;;;;;;;;;;2216993;58;2285;-21
2023/12/17 11:23:51;;;;;;;;;;;;;;;;;;2217605;58;1745;-21
2023/12/17 11:26:22;;;;;;;;;;;;;;;;;;2217111;58;2486;-21
2023/12/17 11:28:52;;;;;;;;;;;;;;;;;;2217084;58;5253;-21
2023/12/17 11:31:22;;;;;;;;;;;;;;;;;;2219743;58;2145;-21
2023/12/17 11:33:53;;;;;;;;;;;;;;;;;;2217752;58;2566;-21
2023/12/17 11:36:24;;;;;;;;;;;;;;;;;;2216507;58;2323;-21
2023/12/17 11:38:55;;;;;;;;;;;;;;;;;;2218692;58;2281;-21
2023/12/17 11:41:25;;;;;;;;;;;;;;;;;;2219220;58;1797;-21
2023/12/17 11:43:55;;;;;;;;;;;;;;;;;;2215970;58;2026;-21
2023/12/17 11:46:26;;;;;;;;;;;;;;;;;;2217744;66;2072;-21
2023/12/17 11:48:57;;;;;;;;;;;;;;;;;;2214564;58;2888;-21
2023/12/17 11:51:28;;;;;;;;;;;;;;;;;;2216400;58;2677;-21
2023/12/17 11:53:58;;;;;;;;;;;;;;;;;;2216096;58;2212;-21
2023/12/17 11:56:29;;;;;;;;;;;;;;;;;;2216195;58;2141;-21
2023/12/17 11:59:00;;;;;;;;;;;;;;;;;;2216475;58;2960;-21
2023/12/17 12:01:30;;;;;;;;;;;;;;;;;;2217884;58;1865;-21
2023/12/17 12:04:00;;;;;;;;;;;;;;;;;;2217251;66;2515;-21
2023/12/17 12:06:30;;;;;;;;;;;;;;;;;;2216081;58;2250;-21
2023/12/17 12:09:02;;;;;;;;;;;;;;;;;;2215577;58;2359;-21
2023/12/17 12:11:35;;;;;;;;;;;;;;;;;;2217055;58;2318;-21
2023/12/17 12:14:05;;;;;;;;;;;;;;;;;;2217246;58;2967;-21
2023/12/17 12:16:41;;;;;;;;;;;;;;;;;;2217534;66;1866;-21
2023/12/17 12:19:11;;;;;;;;;;;;;;;;;;2216989;58;1937;-21
2023/12/17 12:21:42;;;;;;;;;;;;;;;;;;2216692;66;1706;-21
2023/12/17 12:24:17;;;;;;;;;;;;;;;;;;2216960;66;2590;-21
2023/12/17 12:26:48;;;;;;;;;;;;;;;;;;2217166;58;2522;-21
2023/12/17 12:29:18;;;;;;;;;;;;;;;;;;2216536;58;2292;-21
2023/12/17 12:31:54;;;;;;;;;;;;;;;;;;2217197;58;2045;-21
2023/12/17 12:34:32;;;;;;;;;;;;;;;;;;2216569;58;2255;-21
2023/12/17 12:37:02;;;;;;;;;;;;;;;;;;2219129;58;2259;-21
2023/12/17 12:39:44;;;;;;;;;;;;;;;;;;2216363;58;2619;-21
2023/12/17 12:42:17;;;;;;;;;;;;;;;;;;2216994;58;2117;-21
2023/12/17 12:44:49;;;;;;;;;;;;;;;;;;2217350;58;2855;-26
2023/12/17 12:47:20;;;;;;;;;;;;;;;;;;2217228;58;2206;-21
2023/12/17 12:49:51;;;;;;;;;;;;;;;;;;2216263;58;3036;-21
2023/12/17 12:52:22;;;;;;;;;;;;;;;;;;2216969;58;2279;-21
2023/12/17 12:54:52;;;;;;;;;;;;;;;;;;2217593;58;1828;-21
2023/12/17 12:57:23;;;;;;;;;;;;;;;;;;2214232;58;2097;-21
2023/12/17 12:59:53;;;;;;;;;;;;;;;;;;2216744;66;2061;-21
2023/12/17 13:02:23;;;;;;;;;;;;;;;;;;2216531;66;2022;-21
2023/12/17 13:04:53;;;;;;;;;;;;;;;;;;2216500;66;1549;-21
2023/12/17 13:07:23;;;;;;;;;;;;;;;;;;2216591;58;2649;-21
2023/12/17 13:09:54;;;;;;;;;;;;;;;;;;2219377;66;2566;-21
2023/12/17 13:12:24;;;;;;;;;;;;;;;;;;2216035;58;2662;-21
2023/12/17 13:14:54;;;;;;;;;;;;;;;;;;2219037;58;2818;-21
2023/12/17 13:17:24;;;;;;;;;;;;;;;;;;2214685;66;2316;-21
2023/12/17 13:19:55;;;;;;;;;;;;;;;;;;2216891;66;2434;-21
2023/12/17 13:22:25;;;;;;;;;;;;;;;;;;2215402;58;2515;-21
2023/12/17 13:24:55;;;;;;;;;;;;;;;;;;2217180;66;1790;-21
2023/12/17 13:27:26;;;;;;;;;;;;;;;;;;2215150;58;1940;-21
2023/12/17 13:29:56;;;;;;;;;;;;;;;;;;2216868;59;1823;-21
2023/12/17 13:32:27;;;;;;;;;;;;;;;;;;2215770;58;2202;-21
2023/12/17 13:34:57;;;;;;;;;;;;;;;;;;2216920;58;2572;-21
2023/12/17 13:37:28;;;;;;;;;;;;;;;;;;2218459;58;2021;-21
2023/12/17 13:39:58;;;;;;;;;;;;;;;;;;2216645;66;2008;-21
2023/12/17 13:42:28;;;;;;;;;;;;;;;;;;2212563;66;2400;-21
2023/12/17 13:44:58;;;;;;;;;;;;;;;;;;2216090;58;2281;-21
2023/12/17 13:47:29;;;;;;;;;;;;;;;;;;2216328;66;1940;-21
2023/12/17 13:49:59;;;;;;;;;;;;;;;;;;2217898;59;2605;-21
2023/12/17 13:52:29;;;;;;;;;;;;;;;;;;2216176;61;1947;-21
2023/12/17 13:55:00;;;;;;;;;;;;;;;;;;2217098;66;2324;-21
2023/12/17 13:57:30;;;;;;;;;;;;;;;;;;2216380;66;1742;-21
2023/12/17 14:00:01;;;;;;;;;;;;;;;;;;2213243;66;2027;-21
2023/12/17 14:02:31;;;;;;;;;;;;;;;;;;2219170;59;1927;-21
2023/12/17 14:05:02;;;;;;;;;;;;;;;;;;2216870;66;1997;-21
2023/12/17 14:07:33;;;;;;;;;;;;;;;;;;2218418;58;2221;-21
2023/12/17 14:10:03;;;;;;;;;;;;;;;;;;2216014;59;2021;-21
2023/12/17 14:12:34;;;;;;;;;;;;;;;;;;2218716;58;2269;-21
2023/12/17 14:15:06;;;;;;;;;;;;;;;;;;2218953;58;1832;-21
2023/12/17 14:17:36;;;;;;;;;;;;;;;;;;2216348;58;2643;-21
2023/12/17 14:20:07;;;;;;;;;;;;;;;;;;2215932;58;2702;-21
2023/12/17 14:22:37;;;;;;;;;;;;;;;;;;2215737;58;2594;-21
2023/12/17 14:25:08;;;;;;;;;;;;;;;;;;2216228;66;3253;-21
2023/12/17 14:27:39;;;;;;;;;;;;;;;;;;2215925;58;1855;-21
2023/12/17 14:30:13;;;;;;;;;;;;;;;;;;2218375;58;2310;-21
2023/12/17 14:32:43;;;;;;;;;;;;;;;;;;2215170;58;2176;-21
2023/12/17 14:35:13;;;;;;;;;;;;;;;;;;2215887;66;2672;-21
2023/12/17 14:37:43;;;;;;;;;;;;;;;;;;2216624;58;2662;-21
2023/12/17 14:40:14;;;;;;;;;;;;;;;;;;2216677;66;1907;-21
2023/12/17 14:42:44;;;;;;;;;;;;;;;;;;2216505;66;1853;-21
2023/12/17 14:45:15;;;;;;;;;;;;;;;;;;2216232;66;2069;-21
2023/12/17 14:47:45;;;;;;;;;;;;;;;;;;2217748;66;1889;-21
2023/12/17 14:50:15;;;;;;;;;;;;;;;;;;2217597;58;3068;-21
2023/12/17 14:52:45;;;;;;;;;;;;;;;;;;2217131;58;2601;-21
2023/12/17 14:55:16;;;;;;;;;;;;;;;;;;2216779;58;2401;-21
2023/12/17 14:57:46;;;;;;;;;;;;;;;;;;2216690;66;2098;-21
2023/12/17 15:00:17;;;;;;;;;;;;;;;;;;2216302;58;1790;-21
2023/12/17 15:02:47;;;;;;;;;;;;;;;;;;2216724;66;2553;-21
2023/12/17 15:05:18;;;;;;;;;;;;;;;;;;2216074;58;2415;-21
2023/12/17 15:07:48;;;;;;;;;;;;;;;;;;2216463;58;2562;-21
2023/12/17 15:10:18;;;;;;;;;;;;;;;;;;2216130;58;2024;-21
2023/12/17 15:12:49;;;;;;;;;;;;;;;;;;2216749;58;2703;-21
2023/12/17 15:15:20;;;;;;;;;;;;;;;;;;2216693;58;2768;-21
2023/12/17 15:17:51;;;;;;;;;;;;;;;;;;2216020;59;2793;-21
2023/12/17 15:20:21;;;;;;;;;;;;;;;;;;2216141;59;1940;-21
2023/12/17 15:22:52;;;;;;;;;;;;;;;;;;2216080;66;3795;-21
2023/12/17 15:25:22;;;;;;;;;;;;;;;;;;2216608;66;2428;-21
2023/12/17 15:27:53;;;;;;;;;;;;;;;;;;2216444;58;2043;-21
2023/12/17 15:30:24;;;;;;;;;;;;;;;;;;2216678;58;2193;-21
2023/12/17 15:32:56;;;;;;;;;;;;;;;;;;2215958;58;2132;-21
2023/12/17 15:35:26;;;;;;;;;;;;;;;;;;2216461;63;2383;-21
2023/12/17 15:37:57;;;;;;;;;;;;;;;;;;2216069;58;2008;-21
2023/12/17 15:40:29;;;;;;;;;;;;;;;;;;2215625;66;2082;-21
2023/12/17 15:43:00;;;;;;;;;;;;;;;;;;2215931;58;2772;-21
2023/12/17 15:45:33;;;;;;;;;;;;;;;;;;2216389;66;2530;-21
2023/12/17 15:48:05;;;;;;;;;;;;;;;;;;2218088;66;2108;-21
2023/12/17 15:50:37;;;;;;;;;;;;;;;;;;2220522;59;2069;-21
2023/12/17 15:53:09;;;;;;;;;;;;;;;;;;2214877;66;2794;-21
2023/12/17 15:55:42;;;;;;;;;;;;;;;;;;2215037;59;2239;-21
2023/12/17 15:58:13;;;;;;;;;;;;;;;;;;2214529;66;2461;-21
2023/12/17 16:00:44;;;;;;;;;;;;;;;;;;2216382;66;2476;-21
2023/12/17 16:03:15;;;;;;;;;;;;;;;;;;2215612;58;2096;-21
2023/12/17 16:05:46;;;;;;;;;;;;;;;;;;2216532;59;2136;-21
2023/12/17 16:08:17;;;;;;;;;;;;;;;;;;2215674;66;1991;-21
2023/12/17 16:10:48;;;;;;;;;;;;;;;;;;2215745;66;1969;-21
2023/12/17 16:13:18;;;;;;;;;;;;;;;;;;2216017;58;2500;-21
2023/12/17 16:15:49;;;;;;;;;;;;;;;;;;2215857;58;1844;-21
2023/12/17 16:18:20;;;;;;;;;;;;;;;;;;2216761;58;1936;-21
2023/12/17 16:20:51;;;;;;;;;;;;;;;;;;2216335;66;1987;-21
2023/12/17 16:23:24;;;;;;;;;;;;;;;;;;2215699;66;1926;-21
2023/12/17 16:25:56;;;;;;;;;;;;;;;;;;2213227;66;2848;-21
2023/12/17 16:28:27;;;;;;;;;;;;;;;;;;2216362;66;2513;-21
2023/12/17 16:30:58;;;;;;;;;;;;;;;;;;2215406;66;2316;-21
2023/12/17 16:33:29;;;;;;;;;;;;;;;;;;2215814;58;2181;-21
2023/12/17 16:35:59;;;;;;;;;;;;;;;;;;2216697;58;2133;-21
2023/12/17 16:38:31;;;;;;;;;;;;;;;;;;2215613;66;1943;-21
2023/12/17 16:41:01;;;;;;;;;;;;;;;;;;2216876;66;2147;-21
2023/12/17 16:43:32;;;;;;;;;;;;;;;;;;2215862;66;2012;-21
2023/12/17 16:46:03;;;;;;;;;;;;;;;;;;2217067;66;1909;-21
2023/12/17 16:48:35;;;;;;;;;;;;;;;;;;2215222;59;2001;-21
2023/12/17 16:51:08;;;;;;;;;;;;;;;;;;2216248;66;2027;-21
2023/12/17 16:53:39;;;;;;;;;;;;;;;;;;2214569;59;3004;-21
2023/12/17 16:56:10;;;;;;;;;;;;;;;;;;2216802;66;1717;-21
2023/12/17 16:58:41;;;;;;;;;;;;;;;;;;2215236;66;2378;-21
2023/12/17 17:01:12;;;;;;;;;;;;;;;;;;2215547;66;2332;-21
2023/12/17 17:03:43;;;;;;;;;;;;;;;;;;2215734;58;2553;-21
2023/12/17 17:06:15;;;;;;;;;;;;;;;;;;2216146;58;2574;-21
2023/12/17 17:08:47;;;;;;;;;;;;;;;;;;2216256;66;1874;-21
2023/12/17 17:11:18;;;;;;;;;;;;;;;;;;2215569;58;1873;-21
2023/12/17 17:13:50;;;;;;;;;;;;;;;;;;2216651;66;1857;-21
2023/12/17 17:16:22;;;;;;;;;;;;;;;;;;2216084;58;1862;-21
2023/12/17 17:18:54;;;;;;;;;;;;;;;;;;2216493;66;1935;-21
2023/12/17 17:21:26;;;;;;;;;;;;;;;;;;2216337;66;1967;-21
2023/12/17 17:23:58;;;;;;;;;;;;;;;;;;2217501;58;1538;-21
2023/12/17 17:26:30;;;;;;;;;;;;;;;;;;2216426;66;1815;-21